createdAt,value
2023-09-02T00:01:58.589Z,17.95
2023-09-02T00:04:25.167Z,17.92
2023-09-02T00:06:52.076Z,17.91
2023-09-02T00:09:18.595Z,17.93
2023-09-02T00:11:45.210Z,17.91
2023-09-02T00:14:12.877Z,17.92
2023-09-02T00:16:39.567Z,17.94
2023-09-02T00:19:06.162Z,17.97
2023-09-02T00:21:34.213Z,18.00
2023-09-02T00:24:06.675Z,17.99
2023-09-02T00:26:34.037Z,18.00
2023-09-02T00:29:02.015Z,17.95
2023-09-02T00:31:30.034Z,17.91
2023-09-02T00:33:56.996Z,17.88
2023-09-02T00:36:23.689Z,17.85
2023-09-02T00:38:50.338Z,17.82
2023-09-02T00:41:35.578Z,17.75
2023-09-02T00:44:03.028Z,17.70
2023-09-02T00:46:29.781Z,17.63
2023-09-02T00:48:56.551Z,17.54
2023-09-02T00:51:23.245Z,17.53
2023-09-02T00:53:49.851Z,17.58
2023-09-02T00:56:17.244Z,17.61
2023-09-02T00:58:45.222Z,17.62
2023-09-02T01:01:12.495Z,17.61
2023-09-02T01:03:44.039Z,17.64
2023-09-02T01:06:11.120Z,17.64
2023-09-02T01:08:38.454Z,17.63
2023-09-02T01:11:05.400Z,17.64
2023-09-02T01:13:32.440Z,17.62
2023-09-02T01:15:59.368Z,17.56
2023-09-02T01:18:27.493Z,17.50
2023-09-02T01:21:20.457Z,17.44
2023-09-02T01:24:21.006Z,17.45
2023-09-02T01:27:06.502Z,17.45
2023-09-02T01:29:40.462Z,17.44
2023-09-02T01:32:08.479Z,17.41
2023-09-02T01:34:37.763Z,17.41
2023-09-02T01:37:09.024Z,17.42
2023-09-02T01:39:38.336Z,17.43
2023-09-02T01:42:07.425Z,17.43
2023-09-02T01:44:34.862Z,17.39
2023-09-02T01:47:02.549Z,17.40
2023-09-02T01:49:30.653Z,17.41
2023-09-02T01:51:58.574Z,17.35
2023-09-02T01:54:26.496Z,17.31
2023-09-02T01:56:54.012Z,17.34
2023-09-02T01:59:20.772Z,17.37
2023-09-02T02:01:47.461Z,17.34
2023-09-02T02:04:34.349Z,17.25
2023-09-02T02:07:06.017Z,17.22
2023-09-02T02:09:58.806Z,17.22
2023-09-02T02:12:26.653Z,17.22
2023-09-02T02:14:53.524Z,17.24
2023-09-02T02:17:20.127Z,17.21
2023-09-02T02:19:46.773Z,17.13
2023-09-02T02:22:13.458Z,17.10
2023-09-02T02:24:40.079Z,17.06
2023-09-02T02:27:06.742Z,16.97
2023-09-02T02:29:33.319Z,16.97
2023-09-02T02:32:00.018Z,17.02
2023-09-02T02:34:26.773Z,16.97
2023-09-02T02:36:53.385Z,16.88
2023-09-02T02:39:19.967Z,16.79
2023-09-02T02:41:46.970Z,16.73
2023-09-02T02:44:13.640Z,16.74
2023-09-02T02:46:40.335Z,16.77
2023-09-02T02:49:09.617Z,16.74
2023-09-02T02:51:36.215Z,16.72
2023-09-02T02:54:02.852Z,16.76
2023-09-02T02:56:29.636Z,16.82
2023-09-02T02:58:57.312Z,16.83
2023-09-02T03:01:24.554Z,16.81
2023-09-02T03:03:51.293Z,16.82
2023-09-02T03:06:19.932Z,16.79
2023-09-02T03:08:49.504Z,16.77
2023-09-02T03:11:17.395Z,16.80
2023-09-02T03:13:44.205Z,16.83
2023-09-02T03:16:21.869Z,16.82
2023-09-02T03:18:49.293Z,16.79
2023-09-02T03:21:16.194Z,16.83
2023-09-02T03:23:42.940Z,16.83
2023-09-02T03:26:16.378Z,16.81
2023-09-02T03:28:45.646Z,16.79
2023-09-02T03:31:12.577Z,16.85
2023-09-02T03:33:42.196Z,16.91
2023-09-02T03:36:17.618Z,16.98
2023-09-02T03:38:45.668Z,16.97
2023-09-02T03:41:13.566Z,16.96
2023-09-02T03:43:40.182Z,17.04
2023-09-02T03:46:07.198Z,17.06
2023-09-02T03:48:34.773Z,17.07
2023-09-02T03:51:07.165Z,17.11
2023-09-02T03:53:36.960Z,17.15
2023-09-02T03:56:04.327Z,17.13
2023-09-02T03:58:33.209Z,17.11
2023-09-02T04:00:59.935Z,17.05
2023-09-02T04:03:28.248Z,17.04
2023-09-02T04:05:55.089Z,17.07
2023-09-02T04:08:24.113Z,17.11
2023-09-02T04:10:52.320Z,17.10
2023-09-02T04:13:26.117Z,17.10
2023-09-02T04:15:56.713Z,17.10
2023-09-02T04:18:26.042Z,17.08
2023-09-02T04:20:54.148Z,17.05
2023-09-02T04:23:23.020Z,17.03
2023-09-02T04:25:54.204Z,17.07
2023-09-02T04:28:22.850Z,17.08
2023-09-02T04:30:50.945Z,17.07
2023-09-02T04:33:22.967Z,17.05
2023-09-02T04:35:49.921Z,17.01
2023-09-02T04:38:16.560Z,16.95
2023-09-02T04:40:46.632Z,16.99
2023-09-02T04:43:14.596Z,16.96
2023-09-02T04:45:43.184Z,16.92
2023-09-02T04:48:12.775Z,16.93
2023-09-02T04:50:40.569Z,16.91
2023-09-02T04:53:09.326Z,16.90
2023-09-02T04:55:43.057Z,16.91
2023-09-02T04:58:13.008Z,16.90
2023-09-02T05:00:41.785Z,16.89
2023-09-02T05:03:09.784Z,16.83
2023-09-02T05:05:37.442Z,16.72
2023-09-02T05:08:07.573Z,16.67
2023-09-02T05:10:35.120Z,16.74
2023-09-02T05:13:02.682Z,16.78
2023-09-02T05:15:31.082Z,16.87
2023-09-02T05:18:02.034Z,16.87
2023-09-02T05:20:30.468Z,16.92
2023-09-02T05:22:57.176Z,16.96
2023-09-02T05:25:24.027Z,16.94
2023-09-02T05:27:50.624Z,16.95
2023-09-02T05:30:17.228Z,16.96
2023-09-02T05:32:43.819Z,17.01
2023-09-02T05:35:10.443Z,16.96
2023-09-02T05:37:37.126Z,17.01
2023-09-02T05:40:04.313Z,17.07
2023-09-02T05:42:30.906Z,17.11
2023-09-02T05:44:57.842Z,17.17
2023-09-02T05:47:24.427Z,17.17
2023-09-02T05:49:51.051Z,17.19
2023-09-02T05:52:17.615Z,17.21
2023-09-02T05:54:44.297Z,17.21
2023-09-02T05:57:12.358Z,17.24
2023-09-02T05:59:38.990Z,17.31
2023-09-02T06:02:06.367Z,17.37
2023-09-02T06:04:33.058Z,17.47
2023-09-02T06:06:59.626Z,17.48
2023-09-02T06:09:27.690Z,17.54
2023-09-02T06:11:54.602Z,17.58
2023-09-02T06:14:21.413Z,17.63
2023-09-02T06:16:48.031Z,17.61
2023-09-02T06:19:14.642Z,17.64
2023-09-02T06:21:41.474Z,17.68
2023-09-02T06:24:08.247Z,17.69
2023-09-02T06:26:34.955Z,17.69
2023-09-02T06:29:01.721Z,17.73
2023-09-02T06:31:28.418Z,17.73
2023-09-02T06:33:55.234Z,17.72
2023-09-02T06:36:22.610Z,17.74
2023-09-02T06:38:49.467Z,17.80
2023-09-02T06:41:16.990Z,17.91
2023-09-02T06:43:44.335Z,17.98
2023-09-02T06:46:18.940Z,18.03
2023-09-02T06:48:45.827Z,18.07
2023-09-02T06:51:13.948Z,18.04
2023-09-02T06:53:41.346Z,18.04
2023-09-02T06:56:09.495Z,18.15
2023-09-02T06:58:40.622Z,18.33
2023-09-02T07:01:07.544Z,18.40
2023-09-02T07:03:34.259Z,18.44
2023-09-02T07:06:08.054Z,18.51
2023-09-02T07:08:34.973Z,18.52
2023-09-02T07:11:01.667Z,18.54
2023-09-02T07:13:28.509Z,18.49
2023-09-02T07:16:02.687Z,18.58
2023-09-02T07:18:29.615Z,18.67
2023-09-02T07:21:06.365Z,18.71
2023-09-02T07:23:33.946Z,18.72
2023-09-02T07:26:02.572Z,18.72
2023-09-02T07:28:31.272Z,18.76
2023-09-02T07:31:06.621Z,18.74
2023-09-02T07:33:33.805Z,18.77
2023-09-02T07:36:07.476Z,18.78
2023-09-02T07:38:34.462Z,18.72
2023-09-02T07:41:01.091Z,18.69
2023-09-02T07:43:27.750Z,18.74
2023-09-02T07:45:55.352Z,18.81
2023-09-02T07:48:22.200Z,18.98
2023-09-02T07:50:49.198Z,19.01
2023-09-02T07:55:42.568Z,18.88
2023-09-02T07:58:09.274Z,18.88
2023-09-02T08:00:37.255Z,18.94
2023-09-02T08:03:04.804Z,19.08
2023-09-02T08:05:31.722Z,19.15
2023-09-02T08:07:58.915Z,19.31
2023-09-02T08:10:25.482Z,19.43
2023-09-02T08:12:52.119Z,19.58
2023-09-02T08:15:18.803Z,19.64
2023-09-02T08:17:46.127Z,19.72
2023-09-02T08:20:12.951Z,19.75
2023-09-02T08:22:40.827Z,19.75
2023-09-02T08:25:08.482Z,19.88
2023-09-02T08:27:35.402Z,20.00
2023-09-02T08:30:03.385Z,20.13
2023-09-02T08:32:31.583Z,20.25
2023-09-02T08:34:58.648Z,20.35
2023-09-02T08:37:25.312Z,20.37
2023-09-02T08:39:52.471Z,20.32
2023-09-02T08:42:21.457Z,20.40
2023-09-02T08:44:49.805Z,20.36
2023-09-02T08:47:21.039Z,20.24
2023-09-02T08:49:48.411Z,20.32
2023-09-02T08:52:15.489Z,20.31
2023-09-02T08:54:44.220Z,20.34
2023-09-02T08:57:17.228Z,20.35
2023-09-02T08:59:44.118Z,20.40
2023-09-02T09:02:14.391Z,20.53
2023-09-02T09:04:41.776Z,20.53
2023-09-02T09:07:09.784Z,20.45
2023-09-02T09:09:38.101Z,20.52
2023-09-02T09:12:07.408Z,20.62
2023-09-02T09:14:37.616Z,20.68
2023-09-02T09:17:04.880Z,20.76
2023-09-02T09:19:31.983Z,20.91
2023-09-02T09:21:58.974Z,20.97
2023-09-02T09:24:27.483Z,20.95
2023-09-02T09:26:56.349Z,21.03
2023-09-02T09:29:22.983Z,21.15
2023-09-02T09:31:52.455Z,21.19
2023-09-02T09:34:19.144Z,21.31
2023-09-02T09:36:57.766Z,21.40
2023-09-02T09:39:39.644Z,21.58
2023-09-02T09:42:06.621Z,21.61
2023-09-02T09:44:35.348Z,21.76
2023-09-02T09:47:02.170Z,21.76
2023-09-02T09:49:32.971Z,21.73
2023-09-02T09:52:02.804Z,22.01
2023-09-02T09:54:50.006Z,21.79
2023-09-02T09:57:35.374Z,21.44
2023-09-02T10:00:02.304Z,21.58
2023-09-02T10:02:32.266Z,21.73
2023-09-02T10:05:01.181Z,21.84
2023-09-02T10:07:32.212Z,21.74
2023-09-02T10:10:06.485Z,21.59
2023-09-02T10:12:39.334Z,21.83
2023-09-02T10:15:07.090Z,22.15
2023-09-02T10:17:37.441Z,22.12
2023-09-02T10:20:04.794Z,22.28
2023-09-02T10:22:32.710Z,22.51
2023-09-02T10:25:17.152Z,22.37
2023-09-02T10:27:45.239Z,22.38
2023-09-02T10:30:33.567Z,22.32
2023-09-02T10:33:20.283Z,22.44
2023-09-02T10:35:58.236Z,22.69
2023-09-02T10:38:26.114Z,22.63
2023-09-02T10:41:01.256Z,22.41
2023-09-02T10:43:28.535Z,22.55
2023-09-02T10:45:55.615Z,22.74
2023-09-02T10:48:22.359Z,22.71
2023-09-02T10:50:49.811Z,22.73
2023-09-02T10:53:16.478Z,22.65
2023-09-02T10:56:00.231Z,22.96
2023-09-02T10:58:27.340Z,22.95
2023-09-02T11:00:54.326Z,22.88
2023-09-02T11:03:46.644Z,22.70
2023-09-02T11:06:16.224Z,22.42
2023-09-02T11:08:55.041Z,22.00
2023-09-02T11:11:22.188Z,21.45
2023-09-02T11:14:09.803Z,21.12
2023-09-02T11:16:39.480Z,21.12
2023-09-02T11:19:10.163Z,21.06
2023-09-02T11:21:42.686Z,21.11
2023-09-02T11:24:22.995Z,21.20
2023-09-02T11:27:01.540Z,21.15
2023-09-02T11:29:29.699Z,21.54
2023-09-02T11:32:00.075Z,21.77
2023-09-02T11:34:31.391Z,21.56
2023-09-02T11:36:59.658Z,21.53
2023-09-02T11:39:27.879Z,21.50
2023-09-02T11:42:11.036Z,21.63
2023-09-02T11:44:38.640Z,21.63
2023-09-02T11:47:08.188Z,21.56
2023-09-02T11:49:36.114Z,21.53
2023-09-02T11:52:02.883Z,21.47
2023-09-02T11:54:29.567Z,21.20
2023-09-02T11:56:58.520Z,20.99
2023-09-02T11:59:29.008Z,21.16
2023-09-02T12:02:15.582Z,21.42
2023-09-02T12:04:43.193Z,21.56
2023-09-02T12:07:10.847Z,21.57
2023-09-02T12:09:38.584Z,21.47
2023-09-02T12:12:06.623Z,21.72
2023-09-02T12:14:33.464Z,22.01
2023-09-02T12:17:00.465Z,22.20
2023-09-02T12:19:27.717Z,22.66
2023-09-02T12:21:55.526Z,22.88
2023-09-02T12:24:22.490Z,22.79
2023-09-02T12:26:52.900Z,22.54
2023-09-02T12:29:22.500Z,22.29
2023-09-02T12:31:56.680Z,22.40
2023-09-02T12:34:24.018Z,22.96
2023-09-02T12:36:50.604Z,23.12
2023-09-02T12:39:29.058Z,23.20
2023-09-02T12:41:57.194Z,23.31
2023-09-02T12:44:23.905Z,22.96
2023-09-02T12:46:53.423Z,22.94
2023-09-02T12:49:19.979Z,22.46
2023-09-02T12:51:46.640Z,22.30
2023-09-02T12:54:16.236Z,22.30
2023-09-02T12:56:42.948Z,22.10
2023-09-02T12:59:09.515Z,21.99
2023-09-02T13:01:40.819Z,21.92
2023-09-02T13:04:07.783Z,21.89
2023-09-02T13:06:34.522Z,21.72
2023-09-02T13:09:01.363Z,21.49
2023-09-02T13:11:28.518Z,21.36
2023-09-02T13:13:56.137Z,21.27
2023-09-02T13:16:23.060Z,21.18
2023-09-02T13:18:50.614Z,21.09
2023-09-02T13:21:17.275Z,21.14
2023-09-02T13:23:44.223Z,21.48
2023-09-02T13:26:15.934Z,21.53
2023-09-02T13:28:42.634Z,21.56
2023-09-02T13:31:10.984Z,21.57
2023-09-02T13:33:42.137Z,21.67
2023-09-02T13:36:09.011Z,21.77
2023-09-02T13:38:39.820Z,21.92
2023-09-02T13:41:07.722Z,22.02
2023-09-02T13:43:34.483Z,21.84
2023-09-02T13:46:01.275Z,21.65
2023-09-02T13:48:29.810Z,21.55
2023-09-02T13:51:01.166Z,21.47
2023-09-02T13:53:28.543Z,21.52
2023-09-02T13:55:55.191Z,21.81
2023-09-02T13:58:21.940Z,22.01
2023-09-02T14:00:49.425Z,22.04
2023-09-02T14:03:27.337Z,21.76
2023-09-02T14:05:56.043Z,21.65
2023-09-02T14:08:35.290Z,21.43
2023-09-02T14:11:04.672Z,21.24
2023-09-02T14:13:40.885Z,21.07
2023-09-02T14:16:08.634Z,21.22
2023-09-02T14:18:35.522Z,21.37
2023-09-02T14:21:02.348Z,21.56
2023-09-02T14:23:28.871Z,21.51
2023-09-02T14:25:55.601Z,21.36
2023-09-02T14:28:22.686Z,21.25
2023-09-02T14:31:00.456Z,21.18
2023-09-02T14:33:27.090Z,21.37
2023-09-02T14:35:53.640Z,21.68
2023-09-02T14:38:22.342Z,21.76
2023-09-02T14:40:53.003Z,21.82
2023-09-02T14:43:19.971Z,21.84
2023-09-02T14:45:46.753Z,21.76
2023-09-02T14:48:13.850Z,21.72
2023-09-02T14:50:42.120Z,21.70
2023-09-02T14:53:09.128Z,21.81
2023-09-02T14:55:35.986Z,22.00
2023-09-02T14:58:03.852Z,21.82
2023-09-02T15:00:30.879Z,21.88
2023-09-02T15:03:01.531Z,21.96
2023-09-02T15:05:33.662Z,22.03
2023-09-02T15:08:03.504Z,21.96
2023-09-02T15:10:33.641Z,22.06
2023-09-02T15:13:05.780Z,22.18
2023-09-02T15:15:40.046Z,22.27
2023-09-02T15:18:14.375Z,22.26
2023-09-02T15:20:42.081Z,22.19
2023-09-02T15:23:09.142Z,22.18
2023-09-02T15:25:35.768Z,22.18
2023-09-02T15:28:24.209Z,22.27
2023-09-02T15:30:51.204Z,22.13
2023-09-02T15:33:21.012Z,22.22
2023-09-02T15:35:48.447Z,22.29
2023-09-02T15:38:19.183Z,22.25
2023-09-02T15:40:46.070Z,22.22
2023-09-02T15:43:12.739Z,22.22
2023-09-02T15:45:40.641Z,22.14
2023-09-02T15:48:07.807Z,22.09
2023-09-02T15:50:35.126Z,22.11
2023-09-02T15:53:01.889Z,22.14
2023-09-02T15:55:28.492Z,22.13
2023-09-02T15:57:57.241Z,22.23
2023-09-02T16:00:24.838Z,22.34
2023-09-02T16:02:51.951Z,22.34
2023-09-02T16:05:19.120Z,22.36
2023-09-02T16:07:48.485Z,22.34
2023-09-02T16:10:15.284Z,22.21
2023-09-02T16:12:41.898Z,22.22
2023-09-02T16:15:12.268Z,22.00
2023-09-02T16:17:41.671Z,21.93
2023-09-02T16:20:13.584Z,21.89
2023-09-02T16:22:41.653Z,21.84
2023-09-02T16:25:08.850Z,21.86
2023-09-02T16:27:35.612Z,21.86
2023-09-02T16:30:05.666Z,21.78
2023-09-02T16:32:33.007Z,21.80
2023-09-02T16:35:02.979Z,21.77
2023-09-02T16:37:41.297Z,21.73
2023-09-02T16:40:10.532Z,21.69
2023-09-02T16:42:40.684Z,21.59
2023-09-02T16:45:08.988Z,21.62
2023-09-02T16:47:42.527Z,21.63
2023-09-02T16:50:10.213Z,21.61
2023-09-02T16:52:48.397Z,21.59
2023-09-02T16:55:18.441Z,21.64
2023-09-02T16:57:50.168Z,21.60
2023-09-02T17:00:19.303Z,21.57
2023-09-02T17:02:50.175Z,21.50
2023-09-02T17:05:22.097Z,21.43
2023-09-02T17:07:49.824Z,21.43
2023-09-02T17:10:18.543Z,21.42
2023-09-02T17:12:45.776Z,21.36
2023-09-02T17:15:15.550Z,21.27
2023-09-02T17:17:45.182Z,21.20
2023-09-02T17:23:55.884Z,21.18
2023-09-02T17:26:24.429Z,21.11
2023-09-02T17:28:51.405Z,21.05
2023-09-02T17:31:18.361Z,21.03
2023-09-02T17:33:46.254Z,21.02
2023-09-02T17:36:12.959Z,20.93
2023-09-02T17:38:40.036Z,20.87
2023-09-02T17:41:06.742Z,20.82
2023-09-02T17:43:33.429Z,20.76
2023-09-02T17:45:59.997Z,20.67
2023-09-02T17:48:26.785Z,20.65
2023-09-02T17:50:53.446Z,20.60
2023-09-02T17:53:20.135Z,20.52
2023-09-02T17:55:46.864Z,20.47
2023-09-02T17:58:16.678Z,20.39
2023-09-02T18:00:43.259Z,20.28
2023-09-02T18:03:09.979Z,20.19
2023-09-02T18:05:36.787Z,20.12
2023-09-02T18:08:04.791Z,20.04
2023-09-02T18:10:31.562Z,19.98
2023-09-02T18:12:58.433Z,19.86
2023-09-02T18:15:25.754Z,19.83
2023-09-02T18:17:52.969Z,19.81
2023-09-02T18:20:19.738Z,19.73
2023-09-02T18:22:46.515Z,19.69
2023-09-02T18:25:13.183Z,19.65
2023-09-02T18:27:42.141Z,19.62
2023-09-02T18:30:09.457Z,19.53
2023-09-02T18:32:36.162Z,19.39
2023-09-02T18:35:02.881Z,19.34
2023-09-02T18:37:29.599Z,19.22
2023-09-02T18:39:56.405Z,19.08
2023-09-02T18:42:23.546Z,19.00
2023-09-02T18:44:50.301Z,18.96
2023-09-02T18:47:17.181Z,19.04
2023-09-02T18:49:43.931Z,19.08
2023-09-02T18:52:11.136Z,19.15
2023-09-02T18:55:11.306Z,19.12
2023-09-02T18:58:00.645Z,19.03
2023-09-02T19:00:42.682Z,19.03
2023-09-02T19:03:30.890Z,19.03
2023-09-02T19:06:04.502Z,19.02
2023-09-02T19:08:42.201Z,18.98
2023-09-02T19:11:13.157Z,18.81
2023-09-02T19:13:43.461Z,18.63
2023-09-02T19:16:34.597Z,18.50
2023-09-02T19:19:17.798Z,18.32
2023-09-02T19:21:53.060Z,18.19
2023-09-02T19:24:25.597Z,18.09
2023-09-02T19:26:58.174Z,17.97
2023-09-02T19:29:34.692Z,17.91
2023-09-02T19:32:10.622Z,17.88
2023-09-02T19:34:50.778Z,17.90
2023-09-02T19:37:26.526Z,17.88
2023-09-02T19:40:02.490Z,17.99
2023-09-02T19:42:29.833Z,18.16
2023-09-02T19:45:13.147Z,18.27
2023-09-02T19:47:52.055Z,18.37
2023-09-02T19:50:31.525Z,18.38
2023-09-02T19:52:59.061Z,18.40
2023-09-02T19:55:55.433Z,18.33
2023-09-02T19:58:26.947Z,18.27
2023-09-02T20:01:16.114Z,18.37
2023-09-02T20:03:53.443Z,18.45
2023-09-02T20:06:32.353Z,18.45
2023-09-02T20:09:07.302Z,18.45
2023-09-02T20:11:42.870Z,18.46
2023-09-02T20:14:16.761Z,18.43
2023-09-02T20:16:48.832Z,18.39
2023-09-02T20:19:23.226Z,18.47
2023-09-02T20:21:56.420Z,18.38
2023-09-02T20:24:38.226Z,18.29
2023-09-02T20:27:23.900Z,18.20
2023-09-02T20:30:03.872Z,18.19
2023-09-02T20:32:38.926Z,18.22
2023-09-02T20:35:25.606Z,18.20
2023-09-02T20:38:04.520Z,18.20
2023-09-02T20:40:48.771Z,18.19
2023-09-02T20:43:33.182Z,18.13
2023-09-02T20:46:17.086Z,18.07
2023-09-02T20:48:54.541Z,18.05
2023-09-02T20:51:33.589Z,17.94
2023-09-02T20:54:13.272Z,17.81
2023-09-02T20:56:52.112Z,17.72
2023-09-02T20:59:42.749Z,17.70
2023-09-02T21:02:14.583Z,17.63
2023-09-02T21:04:55.699Z,17.65
2023-09-02T21:07:38.453Z,17.71
2023-09-02T21:10:22.986Z,17.71
2023-09-02T21:13:01.082Z,17.69
2023-09-02T21:15:54.085Z,17.64
2023-09-02T21:18:23.637Z,17.68
2023-09-02T21:21:17.204Z,17.67
2023-09-02T21:24:01.353Z,17.60
2023-09-02T21:26:48.981Z,17.53
2023-09-02T21:29:22.075Z,17.46
2023-09-02T21:34:50.264Z,17.37
2023-09-02T21:37:31.553Z,17.31
2023-09-02T21:40:24.825Z,17.34
2023-09-02T21:43:03.942Z,17.29
2023-09-02T21:45:41.070Z,17.21
